sensor_id;sensor_type;location;lat;lon;timestamp;temperature;humidity
24146;DHT22;12308;50.948;4.706;2023-03-11T00:00:15;2.80;99.90
24146;DHT22;12308;50.948;4.706;2023-03-11T00:02:44;2.70;99.90
24146;DHT22;12308;50.948;4.706;2023-03-11T00:05:28;2.60;99.90
24146;DHT22;12308;50.948;4.706;2023-03-11T00:07:54;2.60;99.90
24146;DHT22;12308;50.948;4.706;2023-03-11T00:10:26;2.70;99.90
24146;DHT22;12308;50.948;4.706;2023-03-11T00:12:53;2.70;99.90
24146;DHT22;12308;50.948;4.706;2023-03-11T00:15:19;2.70;99.90
24146;DHT22;12308;50.948;4.706;2023-03-11T00:17:47;2.60;99.90
24146;DHT22;12308;50.948;4.706;2023-03-11T00:20:21;2.70;99.90
24146;DHT22;12308;50.948;4.706;2023-03-11T00:22:47;2.80;99.90
24146;DHT22;12308;50.948;4.706;2023-03-11T00:25:16;2.80;99.90
24146;DHT22;12308;50.948;4.706;2023-03-11T00:27:42;2.90;99.90
24146;DHT22;12308;50.948;4.706;2023-03-11T00:30:09;2.90;99.90
24146;DHT22;12308;50.948;4.706;2023-03-11T00:32:34;2.90;99.90
24146;DHT22;12308;50.948;4.706;2023-03-11T00:35:00;3.00;99.90
24146;DHT22;12308;50.948;4.706;2023-03-11T00:37:26;3.10;99.90
24146;DHT22;12308;50.948;4.706;2023-03-11T00:39:52;3.10;99.90
24146;DHT22;12308;50.948;4.706;2023-03-11T00:42:17;3.10;99.90
24146;DHT22;12308;50.948;4.706;2023-03-11T00:44:43;3.20;99.90
24146;DHT22;12308;50.948;4.706;2023-03-11T00:47:10;3.30;99.90
24146;DHT22;12308;50.948;4.706;2023-03-11T00:49:36;3.40;99.90
24146;DHT22;12308;50.948;4.706;2023-03-11T00:52:03;3.40;99.90
24146;DHT22;12308;50.948;4.706;2023-03-11T00:54:28;3.30;99.90
24146;DHT22;12308;50.948;4.706;2023-03-11T00:56:54;3.20;99.90
24146;DHT22;12308;50.948;4.706;2023-03-11T00:59:20;3.30;99.90
24146;DHT22;12308;50.948;4.706;2023-03-11T01:01:45;3.20;99.90
24146;DHT22;12308;50.948;4.706;2023-03-11T01:04:11;3.00;99.90
24146;DHT22;12308;50.948;4.706;2023-03-11T01:06:36;2.90;99.90
24146;DHT22;12308;50.948;4.706;2023-03-11T01:09:02;2.70;99.90
24146;DHT22;12308;50.948;4.706;2023-03-11T01:11:29;2.60;99.90
24146;DHT22;12308;50.948;4.706;2023-03-11T01:13:55;2.60;99.90
24146;DHT22;12308;50.948;4.706;2023-03-11T01:16:20;2.40;99.90
24146;DHT22;12308;50.948;4.706;2023-03-11T01:18:46;2.60;99.90
24146;DHT22;12308;50.948;4.706;2023-03-11T01:21:12;2.60;99.90
24146;DHT22;12308;50.948;4.706;2023-03-11T01:23:38;2.60;99.90
24146;DHT22;12308;50.948;4.706;2023-03-11T01:26:04;2.60;99.90
24146;DHT22;12308;50.948;4.706;2023-03-11T01:28:30;2.50;99.90
24146;DHT22;12308;50.948;4.706;2023-03-11T01:30:55;2.50;99.90
24146;DHT22;12308;50.948;4.706;2023-03-11T01:33:21;2.30;99.90
24146;DHT22;12308;50.948;4.706;2023-03-11T01:35:47;2.30;99.90
24146;DHT22;12308;50.948;4.706;2023-03-11T01:38:13;2.30;99.90
24146;DHT22;12308;50.948;4.706;2023-03-11T01:40:46;2.40;99.90
24146;DHT22;12308;50.948;4.706;2023-03-11T01:43:46;2.40;99.90
24146;DHT22;12308;50.948;4.706;2023-03-11T01:48:54;2.40;99.90
24146;DHT22;12308;50.948;4.706;2023-03-11T01:51:32;2.50;99.90
24146;DHT22;12308;50.948;4.706;2023-03-11T01:54:03;2.60;99.90
24146;DHT22;12308;50.948;4.706;2023-03-11T01:56:30;2.80;99.90
24146;DHT22;12308;50.948;4.706;2023-03-11T01:58:56;2.90;99.90
24146;DHT22;12308;50.948;4.706;2023-03-11T02:01:23;3.00;99.90
24146;DHT22;12308;50.948;4.706;2023-03-11T02:03:49;3.00;99.90
24146;DHT22;12308;50.948;4.706;2023-03-11T02:06:21;3.10;99.90
24146;DHT22;12308;50.948;4.706;2023-03-11T02:08:48;3.00;99.90
24146;DHT22;12308;50.948;4.706;2023-03-11T02:11:23;3.00;99.90
24146;DHT22;12308;50.948;4.706;2023-03-11T02:13:51;3.20;99.90
24146;DHT22;12308;50.948;4.706;2023-03-11T02:16:17;3.30;99.90
24146;DHT22;12308;50.948;4.706;2023-03-11T02:18:43;3.40;99.90
24146;DHT22;12308;50.948;4.706;2023-03-11T02:21:17;3.30;99.90
24146;DHT22;12308;50.948;4.706;2023-03-11T02:29:03;3.20;99.90
24146;DHT22;12308;50.948;4.706;2023-03-11T02:31:31;3.30;99.90
24146;DHT22;12308;50.948;4.706;2023-03-11T02:33:58;3.20;99.90
24146;DHT22;12308;50.948;4.706;2023-03-11T02:36:32;3.20;99.90
24146;DHT22;12308;50.948;4.706;2023-03-11T02:38:57;3.30;99.90
24146;DHT22;12308;50.948;4.706;2023-03-11T02:41:23;3.40;99.90
24146;DHT22;12308;50.948;4.706;2023-03-11T02:43:49;3.30;99.90
24146;DHT22;12308;50.948;4.706;2023-03-11T02:46:15;3.20;99.90
24146;DHT22;12308;50.948;4.706;2023-03-11T02:48:42;3.10;99.90
24146;DHT22;12308;50.948;4.706;2023-03-11T02:51:08;3.10;99.90
24146;DHT22;12308;50.948;4.706;2023-03-11T02:53:38;3.10;99.90
24146;DHT22;12308;50.948;4.706;2023-03-11T02:56:05;3.00;99.90
24146;DHT22;12308;50.948;4.706;2023-03-11T02:58:31;3.10;99.90
24146;DHT22;12308;50.948;4.706;2023-03-11T03:00:57;3.20;99.90
24146;DHT22;12308;50.948;4.706;2023-03-11T03:03:23;3.10;99.90
24146;DHT22;12308;50.948;4.706;2023-03-11T03:05:48;3.00;99.90
24146;DHT22;12308;50.948;4.706;2023-03-11T03:08:14;3.10;99.90
24146;DHT22;12308;50.948;4.706;2023-03-11T03:10:40;3.00;99.90
24146;DHT22;12308;50.948;4.706;2023-03-11T03:13:05;3.00;99.90
24146;DHT22;12308;50.948;4.706;2023-03-11T03:15:31;2.90;99.90
24146;DHT22;12308;50.948;4.706;2023-03-11T03:17:56;2.80;99.90
24146;DHT22;12308;50.948;4.706;2023-03-11T03:20:22;2.80;99.90
24146;DHT22;12308;50.948;4.706;2023-03-11T03:22:48;2.80;99.90
24146;DHT22;12308;50.948;4.706;2023-03-11T03:25:14;2.70;99.90
24146;DHT22;12308;50.948;4.706;2023-03-11T03:27:40;2.60;99.90
24146;DHT22;12308;50.948;4.706;2023-03-11T03:30:06;2.60;99.90
24146;DHT22;12308;50.948;4.706;2023-03-11T03:32:32;2.60;99.90
24146;DHT22;12308;50.948;4.706;2023-03-11T03:34:59;2.60;99.90
24146;DHT22;12308;50.948;4.706;2023-03-11T03:37:26;2.70;99.90
24146;DHT22;12308;50.948;4.706;2023-03-11T03:39:52;2.80;99.90
24146;DHT22;12308;50.948;4.706;2023-03-11T03:42:18;2.80;99.90
24146;DHT22;12308;50.948;4.706;2023-03-11T03:44:44;2.90;99.90
24146;DHT22;12308;50.948;4.706;2023-03-11T03:47:09;2.90;99.90
24146;DHT22;12308;50.948;4.706;2023-03-11T03:49:36;2.70;99.90
24146;DHT22;12308;50.948;4.706;2023-03-11T03:52:04;2.50;99.90
24146;DHT22;12308;50.948;4.706;2023-03-11T03:54:30;2.50;99.90
24146;DHT22;12308;50.948;4.706;2023-03-11T03:56:57;2.50;99.90
24146;DHT22;12308;50.948;4.706;2023-03-11T03:59:22;2.40;99.90
24146;DHT22;12308;50.948;4.706;2023-03-11T04:01:48;2.30;99.90
24146;DHT22;12308;50.948;4.706;2023-03-11T04:04:14;2.30;99.90
24146;DHT22;12308;50.948;4.706;2023-03-11T04:06:39;2.10;99.90
24146;DHT22;12308;50.948;4.706;2023-03-11T04:09:06;2.10;99.90
24146;DHT22;12308;50.948;4.706;2023-03-11T04:11:33;2.10;99.90
24146;DHT22;12308;50.948;4.706;2023-03-11T04:13:59;2.10;99.90
24146;DHT22;12308;50.948;4.706;2023-03-11T04:16:27;2.00;99.90
24146;DHT22;12308;50.948;4.706;2023-03-11T04:18:52;1.90;99.90
24146;DHT22;12308;50.948;4.706;2023-03-11T04:21:18;1.90;99.90
24146;DHT22;12308;50.948;4.706;2023-03-11T04:23:44;1.80;99.90
24146;DHT22;12308;50.948;4.706;2023-03-11T04:26:10;1.70;99.90
24146;DHT22;12308;50.948;4.706;2023-03-11T04:28:36;1.70;99.90
24146;DHT22;12308;50.948;4.706;2023-03-11T04:31:01;1.70;99.90
24146;DHT22;12308;50.948;4.706;2023-03-11T04:33:27;1.60;99.90
24146;DHT22;12308;50.948;4.706;2023-03-11T04:35:53;1.60;99.90
24146;DHT22;12308;50.948;4.706;2023-03-11T04:38:18;1.60;99.90
24146;DHT22;12308;50.948;4.706;2023-03-11T04:40:44;1.70;99.90
24146;DHT22;12308;50.948;4.706;2023-03-11T04:43:10;1.70;99.90
24146;DHT22;12308;50.948;4.706;2023-03-11T04:45:39;1.70;99.90
24146;DHT22;12308;50.948;4.706;2023-03-11T04:48:05;1.50;99.90
24146;DHT22;12308;50.948;4.706;2023-03-11T04:50:31;1.40;99.90
24146;DHT22;12308;50.948;4.706;2023-03-11T04:52:57;1.40;99.90
24146;DHT22;12308;50.948;4.706;2023-03-11T04:55:23;1.40;99.90
24146;DHT22;12308;50.948;4.706;2023-03-11T04:57:49;1.40;99.90
24146;DHT22;12308;50.948;4.706;2023-03-11T05:00:15;1.50;99.90
24146;DHT22;12308;50.948;4.706;2023-03-11T05:02:41;1.50;99.90
24146;DHT22;12308;50.948;4.706;2023-03-11T05:05:08;1.40;99.90
24146;DHT22;12308;50.948;4.706;2023-03-11T05:07:35;1.40;99.90
24146;DHT22;12308;50.948;4.706;2023-03-11T05:10:01;1.40;99.90
24146;DHT22;12308;50.948;4.706;2023-03-11T05:12:27;1.50;99.90
24146;DHT22;12308;50.948;4.706;2023-03-11T05:14:53;1.40;99.90
24146;DHT22;12308;50.948;4.706;2023-03-11T05:17:18;1.40;99.90
24146;DHT22;12308;50.948;4.706;2023-03-11T05:19:44;1.40;99.90
24146;DHT22;12308;50.948;4.706;2023-03-11T05:22:10;1.40;99.90
24146;DHT22;12308;50.948;4.706;2023-03-11T05:24:36;1.30;99.90
24146;DHT22;12308;50.948;4.706;2023-03-11T05:27:02;1.30;99.90
24146;DHT22;12308;50.948;4.706;2023-03-11T05:29:28;1.30;99.90
24146;DHT22;12308;50.948;4.706;2023-03-11T05:31:54;1.40;99.90
24146;DHT22;12308;50.948;4.706;2023-03-11T05:34:21;1.30;99.90
24146;DHT22;12308;50.948;4.706;2023-03-11T05:36:46;1.30;99.90
24146;DHT22;12308;50.948;4.706;2023-03-11T05:39:12;1.30;99.90
24146;DHT22;12308;50.948;4.706;2023-03-11T05:41:38;1.30;99.90
24146;DHT22;12308;50.948;4.706;2023-03-11T05:44:04;1.30;99.90
24146;DHT22;12308;50.948;4.706;2023-03-11T05:46:29;1.30;99.90
24146;DHT22;12308;50.948;4.706;2023-03-11T05:48:55;1.10;99.90
24146;DHT22;12308;50.948;4.706;2023-03-11T05:51:21;1.10;99.90
24146;DHT22;12308;50.948;4.706;2023-03-11T05:53:47;1.20;99.90
24146;DHT22;12308;50.948;4.706;2023-03-11T05:56:18;1.10;99.90
24146;DHT22;12308;50.948;4.706;2023-03-11T05:58:44;1.00;99.90
24146;DHT22;12308;50.948;4.706;2023-03-11T06:01:12;1.00;99.90
24146;DHT22;12308;50.948;4.706;2023-03-11T06:03:39;1.00;99.90
24146;DHT22;12308;50.948;4.706;2023-03-11T06:06:06;1.00;99.90
24146;DHT22;12308;50.948;4.706;2023-03-11T06:08:32;1.00;99.90
24146;DHT22;12308;50.948;4.706;2023-03-11T06:11:08;1.00;99.90
24146;DHT22;12308;50.948;4.706;2023-03-11T06:13:35;1.10;99.90
24146;DHT22;12308;50.948;4.706;2023-03-11T06:16:01;1.00;99.90
24146;DHT22;12308;50.948;4.706;2023-03-11T06:18:27;0.90;99.90
24146;DHT22;12308;50.948;4.706;2023-03-11T06:20:56;0.80;99.90
24146;DHT22;12308;50.948;4.706;2023-03-11T06:23:22;0.90;99.90
24146;DHT22;12308;50.948;4.706;2023-03-11T06:25:59;0.80;99.90
24146;DHT22;12308;50.948;4.706;2023-03-11T06:28:25;0.80;99.90
24146;DHT22;12308;50.948;4.706;2023-03-11T06:30:51;0.80;99.90
24146;DHT22;12308;50.948;4.706;2023-03-11T06:33:17;0.80;99.90
24146;DHT22;12308;50.948;4.706;2023-03-11T06:35:43;0.80;99.90
24146;DHT22;12308;50.948;4.706;2023-03-11T06:38:08;0.80;99.90
24146;DHT22;12308;50.948;4.706;2023-03-11T06:40:36;0.90;99.90
24146;DHT22;12308;50.948;4.706;2023-03-11T06:43:01;0.90;99.90
24146;DHT22;12308;50.948;4.706;2023-03-11T06:45:27;1.00;99.90
24146;DHT22;12308;50.948;4.706;2023-03-11T06:47:53;1.00;99.90
24146;DHT22;12308;50.948;4.706;2023-03-11T06:50:18;1.10;99.90
24146;DHT22;12308;50.948;4.706;2023-03-11T06:52:44;1.00;99.90
24146;DHT22;12308;50.948;4.706;2023-03-11T06:55:10;1.10;99.90
24146;DHT22;12308;50.948;4.706;2023-03-11T06:57:36;1.10;99.90
24146;DHT22;12308;50.948;4.706;2023-03-11T07:00:02;1.10;99.90
24146;DHT22;12308;50.948;4.706;2023-03-11T07:02:30;1.10;99.90
24146;DHT22;12308;50.948;4.706;2023-03-11T07:04:56;1.10;99.90
24146;DHT22;12308;50.948;4.706;2023-03-11T07:07:22;1.10;99.90
24146;DHT22;12308;50.948;4.706;2023-03-11T07:09:47;1.20;99.90
24146;DHT22;12308;50.948;4.706;2023-03-11T07:12:13;1.30;99.90
24146;DHT22;12308;50.948;4.706;2023-03-11T07:14:39;1.40;99.90
24146;DHT22;12308;50.948;4.706;2023-03-11T07:17:05;1.60;99.90
24146;DHT22;12308;50.948;4.706;2023-03-11T07:19:30;1.80;99.90
24146;DHT22;12308;50.948;4.706;2023-03-11T07:21:56;1.80;99.90
24146;DHT22;12308;50.948;4.706;2023-03-11T07:24:22;1.80;99.90
24146;DHT22;12308;50.948;4.706;2023-03-11T07:26:47;1.80;99.90
24146;DHT22;12308;50.948;4.706;2023-03-11T07:29:13;1.80;99.90
24146;DHT22;12308;50.948;4.706;2023-03-11T07:31:40;1.90;99.90
24146;DHT22;12308;50.948;4.706;2023-03-11T07:34:06;2.10;99.90
24146;DHT22;12308;50.948;4.706;2023-03-11T07:36:36;2.00;99.90
24146;DHT22;12308;50.948;4.706;2023-03-11T07:39:04;2.10;99.90
24146;DHT22;12308;50.948;4.706;2023-03-11T07:41:34;2.10;99.90
24146;DHT22;12308;50.948;4.706;2023-03-11T07:44:01;2.20;99.90
24146;DHT22;12308;50.948;4.706;2023-03-11T07:46:28;2.40;99.90
24146;DHT22;12308;50.948;4.706;2023-03-11T07:48:55;2.40;99.90
24146;DHT22;12308;50.948;4.706;2023-03-11T07:51:23;2.50;99.90
24146;DHT22;12308;50.948;4.706;2023-03-11T07:53:52;2.60;99.90
24146;DHT22;12308;50.948;4.706;2023-03-11T07:56:19;2.70;99.90
24146;DHT22;12308;50.948;4.706;2023-03-11T07:58:45;2.80;99.90
24146;DHT22;12308;50.948;4.706;2023-03-11T08:01:19;2.80;99.90
24146;DHT22;12308;50.948;4.706;2023-03-11T08:03:47;2.80;99.90
24146;DHT22;12308;50.948;4.706;2023-03-11T08:06:26;2.80;99.90
24146;DHT22;12308;50.948;4.706;2023-03-11T08:08:53;2.90;99.90
24146;DHT22;12308;50.948;4.706;2023-03-11T08:11:19;3.00;99.90
24146;DHT22;12308;50.948;4.706;2023-03-11T08:13:47;3.10;99.90
24146;DHT22;12308;50.948;4.706;2023-03-11T08:16:16;3.20;99.90
24146;DHT22;12308;50.948;4.706;2023-03-11T08:18:42;3.20;99.90
24146;DHT22;12308;50.948;4.706;2023-03-11T08:21:10;3.20;99.90
24146;DHT22;12308;50.948;4.706;2023-03-11T08:23:36;3.20;99.90
24146;DHT22;12308;50.948;4.706;2023-03-11T08:26:07;3.30;99.90
24146;DHT22;12308;50.948;4.706;2023-03-11T08:28:33;3.40;99.90
24146;DHT22;12308;50.948;4.706;2023-03-11T08:30:59;3.30;99.90
24146;DHT22;12308;50.948;4.706;2023-03-11T08:33:25;3.50;99.90
24146;DHT22;12308;50.948;4.706;2023-03-11T08:35:51;3.60;99.90
24146;DHT22;12308;50.948;4.706;2023-03-11T08:38:16;3.70;99.90
24146;DHT22;12308;50.948;4.706;2023-03-11T08:40:42;3.80;99.90
24146;DHT22;12308;50.948;4.706;2023-03-11T08:43:11;3.90;99.90
24146;DHT22;12308;50.948;4.706;2023-03-11T08:45:40;4.00;99.90
24146;DHT22;12308;50.948;4.706;2023-03-11T08:48:06;4.20;99.90
24146;DHT22;12308;50.948;4.706;2023-03-11T08:50:31;4.30;99.90
24146;DHT22;12308;50.948;4.706;2023-03-11T08:52:57;4.50;99.90
24146;DHT22;12308;50.948;4.706;2023-03-11T08:55:25;4.70;99.90
24146;DHT22;12308;50.948;4.706;2023-03-11T08:57:53;4.90;99.90
24146;DHT22;12308;50.948;4.706;2023-03-11T09:00:19;5.10;99.90
24146;DHT22;12308;50.948;4.706;2023-03-11T09:02:45;5.10;99.90
24146;DHT22;12308;50.948;4.706;2023-03-11T09:05:10;4.90;99.90
24146;DHT22;12308;50.948;4.706;2023-03-11T09:07:36;4.90;99.90
24146;DHT22;12308;50.948;4.706;2023-03-11T09:10:02;4.90;99.90
24146;DHT22;12308;50.948;4.706;2023-03-11T09:12:35;4.80;99.90
24146;DHT22;12308;50.948;4.706;2023-03-11T09:15:01;4.60;99.90
24146;DHT22;12308;50.948;4.706;2023-03-11T09:17:27;4.70;99.90
24146;DHT22;12308;50.948;4.706;2023-03-11T09:19:52;4.70;99.90
24146;DHT22;12308;50.948;4.706;2023-03-11T09:22:18;4.80;99.90
24146;DHT22;12308;50.948;4.706;2023-03-11T09:24:44;4.80;99.90
24146;DHT22;12308;50.948;4.706;2023-03-11T09:27:09;4.90;99.90
24146;DHT22;12308;50.948;4.706;2023-03-11T09:29:37;5.10;99.90
24146;DHT22;12308;50.948;4.706;2023-03-11T09:32:03;5.40;99.90
24146;DHT22;12308;50.948;4.706;2023-03-11T09:34:29;5.40;99.90
24146;DHT22;12308;50.948;4.706;2023-03-11T09:36:54;5.50;99.90
24146;DHT22;12308;50.948;4.706;2023-03-11T09:39:20;5.90;99.90
24146;DHT22;12308;50.948;4.706;2023-03-11T09:44:26;6.10;99.90
24146;DHT22;12308;50.948;4.706;2023-03-11T09:52:57;6.40;99.90
24146;DHT22;12308;50.948;4.706;2023-03-11T10:00:52;6.80;99.90
24146;DHT22;12308;50.948;4.706;2023-03-11T10:05:54;7.00;99.90
24146;DHT22;12308;50.948;4.706;2023-03-11T10:08:32;7.30;99.90
24146;DHT22;12308;50.948;4.706;2023-03-11T10:16:55;7.00;99.90
24146;DHT22;12308;50.948;4.706;2023-03-11T10:22:42;6.90;99.90
24146;DHT22;12308;50.948;4.706;2023-03-11T10:25:24;6.80;99.90
24146;DHT22;12308;50.948;4.706;2023-03-11T10:27:56;6.90;99.90
24146;DHT22;12308;50.948;4.706;2023-03-11T10:30:46;7.10;99.90
24146;DHT22;12308;50.948;4.706;2023-03-11T10:36:16;7.10;99.90
24146;DHT22;12308;50.948;4.706;2023-03-11T10:38:46;7.10;99.90
24146;DHT22;12308;50.948;4.706;2023-03-11T10:44:31;7.20;99.90
24146;DHT22;12308;50.948;4.706;2023-03-11T10:46:58;7.40;99.90
24146;DHT22;12308;50.948;4.706;2023-03-11T10:49:24;7.70;99.90
24146;DHT22;12308;50.948;4.706;2023-03-11T10:51:51;7.90;99.90
24146;DHT22;12308;50.948;4.706;2023-03-11T10:54:26;8.00;99.90
24146;DHT22;12308;50.948;4.706;2023-03-11T10:57:18;7.90;99.90
24146;DHT22;12308;50.948;4.706;2023-03-11T10:59:48;8.30;99.90
24146;DHT22;12308;50.948;4.706;2023-03-11T11:02:31;8.40;99.90
24146;DHT22;12308;50.948;4.706;2023-03-11T11:07:42;8.50;99.90
24146;DHT22;12308;50.948;4.706;2023-03-11T11:15:50;9.00;99.90
24146;DHT22;12308;50.948;4.706;2023-03-11T11:18:44;8.80;99.90
24146;DHT22;12308;50.948;4.706;2023-03-11T11:21:27;9.10;99.90
24146;DHT22;12308;50.948;4.706;2023-03-11T11:24:23;9.20;99.90
24146;DHT22;12308;50.948;4.706;2023-03-11T11:30:12;9.20;99.90
24146;DHT22;12308;50.948;4.706;2023-03-11T11:32:39;8.90;99.90
24146;DHT22;12308;50.948;4.706;2023-03-11T11:35:15;8.90;99.90
24146;DHT22;12308;50.948;4.706;2023-03-11T11:37:53;9.20;99.90
24146;DHT22;12308;50.948;4.706;2023-03-11T11:45:38;8.90;99.90
24146;DHT22;12308;50.948;4.706;2023-03-11T11:50:42;8.30;99.90
24146;DHT22;12308;50.948;4.706;2023-03-11T11:55:55;8.20;99.90
24146;DHT22;12308;50.948;4.706;2023-03-11T11:58:21;8.30;99.90
24146;DHT22;12308;50.948;4.706;2023-03-11T12:12:41;8.40;99.90
24146;DHT22;12308;50.948;4.706;2023-03-11T12:15:23;8.40;99.90
24146;DHT22;12308;50.948;4.706;2023-03-11T12:17:55;8.40;99.90
24146;DHT22;12308;50.948;4.706;2023-03-11T12:20:41;8.20;99.90
24146;DHT22;12308;50.948;4.706;2023-03-11T12:26:19;7.80;99.90
24146;DHT22;12308;50.948;4.706;2023-03-11T12:28:58;7.80;99.90
24146;DHT22;12308;50.948;4.706;2023-03-11T12:31:27;8.20;99.90
24146;DHT22;12308;50.948;4.706;2023-03-11T12:33:58;8.50;99.90
24146;DHT22;12308;50.948;4.706;2023-03-11T12:36:35;8.80;99.90
24146;DHT22;12308;50.948;4.706;2023-03-11T12:39:04;8.70;99.90
24146;DHT22;12308;50.948;4.706;2023-03-11T12:41:39;8.90;99.90
24146;DHT22;12308;50.948;4.706;2023-03-11T12:44:25;9.00;99.90
24146;DHT22;12308;50.948;4.706;2023-03-11T12:49:24;9.40;99.90
24146;DHT22;12308;50.948;4.706;2023-03-11T12:52:20;9.30;99.90
24146;DHT22;12308;50.948;4.706;2023-03-11T13:03:23;8.80;99.90
24146;DHT22;12308;50.948;4.706;2023-03-11T13:08:50;8.20;99.90
24146;DHT22;12308;50.948;4.706;2023-03-11T13:11:27;8.00;99.90
24146;DHT22;12308;50.948;4.706;2023-03-11T13:16:39;7.80;99.90
24146;DHT22;12308;50.948;4.706;2023-03-11T13:21:56;7.90;99.90
24146;DHT22;12308;50.948;4.706;2023-03-11T13:29:58;8.30;99.90
24146;DHT22;12308;50.948;4.706;2023-03-11T13:41:31;8.30;99.90
24146;DHT22;12308;50.948;4.706;2023-03-11T13:44:23;8.40;99.90
24146;DHT22;12308;50.948;4.706;2023-03-11T13:47:01;8.50;99.90
24146;DHT22;12308;50.948;4.706;2023-03-11T13:52:23;8.30;99.90
24146;DHT22;12308;50.948;4.706;2023-03-11T13:57:35;8.50;99.90
24146;DHT22;12308;50.948;4.706;2023-03-11T14:00:14;8.90;99.90
24146;DHT22;12308;50.948;4.706;2023-03-11T14:03:03;8.80;99.90
24146;DHT22;12308;50.948;4.706;2023-03-11T14:05:31;8.40;99.90
24146;DHT22;12308;50.948;4.706;2023-03-11T14:11:14;8.30;99.90
24146;DHT22;12308;50.948;4.706;2023-03-11T14:13:49;8.30;99.90
24146;DHT22;12308;50.948;4.706;2023-03-11T14:16:35;8.30;99.90
24146;DHT22;12308;50.948;4.706;2023-03-11T14:19:16;8.30;99.90
24146;DHT22;12308;50.948;4.706;2023-03-11T14:21:46;8.30;99.90
24146;DHT22;12308;50.948;4.706;2023-03-11T14:24:27;8.30;99.90
24146;DHT22;12308;50.948;4.706;2023-03-11T14:26:54;8.50;99.90
24146;DHT22;12308;50.948;4.706;2023-03-11T14:29:37;8.60;99.90
24146;DHT22;12308;50.948;4.706;2023-03-11T14:32:27;8.60;99.90
24146;DHT22;12308;50.948;4.706;2023-03-11T14:34:53;8.60;99.90
24146;DHT22;12308;50.948;4.706;2023-03-11T14:39:49;8.70;99.90
24146;DHT22;12308;50.948;4.706;2023-03-11T14:47:34;8.70;99.90
24146;DHT22;12308;50.948;4.706;2023-03-11T14:50:04;8.80;99.90
24146;DHT22;12308;50.948;4.706;2023-03-11T14:52:39;8.90;99.90
24146;DHT22;12308;50.948;4.706;2023-03-11T14:55:16;8.80;99.90
24146;DHT22;12308;50.948;4.706;2023-03-11T15:01:41;9.10;99.90
24146;DHT22;12308;50.948;4.706;2023-03-11T15:03:44;9.00;99.90
24146;DHT22;12308;50.948;4.706;2023-03-11T15:06:17;9.10;99.90
24146;DHT22;12308;50.948;4.706;2023-03-11T15:08:51;9.10;99.90
24146;DHT22;12308;50.948;4.706;2023-03-11T15:11:24;9.00;99.90
24146;DHT22;12308;50.948;4.706;2023-03-11T15:13:53;8.90;99.90
24146;DHT22;12308;50.948;4.706;2023-03-11T15:16:29;8.80;99.90
24146;DHT22;12308;50.948;4.706;2023-03-11T15:18:55;8.70;99.90
24146;DHT22;12308;50.948;4.706;2023-03-11T15:21:23;8.70;99.90
24146;DHT22;12308;50.948;4.706;2023-03-11T15:26:24;8.90;99.90
24146;DHT22;12308;50.948;4.706;2023-03-11T15:29:02;9.10;99.90
24146;DHT22;12308;50.948;4.706;2023-03-11T15:31:36;9.30;99.90
24146;DHT22;12308;50.948;4.706;2023-03-11T15:36:57;9.20;99.90
24146;DHT22;12308;50.948;4.706;2023-03-11T15:44:37;9.00;99.90
24146;DHT22;12308;50.948;4.706;2023-03-11T15:47:12;8.80;99.90
24146;DHT22;12308;50.948;4.706;2023-03-11T15:49:38;9.00;99.90
24146;DHT22;12308;50.948;4.706;2023-03-11T15:52:04;9.10;99.90
24146;DHT22;12308;50.948;4.706;2023-03-11T15:54:30;8.80;99.90
24146;DHT22;12308;50.948;4.706;2023-03-11T15:56:57;8.80;99.90
24146;DHT22;12308;50.948;4.706;2023-03-11T15:59:25;9.00;99.90
24146;DHT22;12308;50.948;4.706;2023-03-11T16:01:52;8.90;99.90
24146;DHT22;12308;50.948;4.706;2023-03-11T16:04:19;8.70;99.90
24146;DHT22;12308;50.948;4.706;2023-03-11T16:06:45;8.50;99.90
24146;DHT22;12308;50.948;4.706;2023-03-11T16:09:12;8.50;99.90
24146;DHT22;12308;50.948;4.706;2023-03-11T16:11:39;8.50;99.90
24146;DHT22;12308;50.948;4.706;2023-03-11T16:14:05;8.60;99.90
24146;DHT22;12308;50.948;4.706;2023-03-11T16:16:32;8.60;99.90
24146;DHT22;12308;50.948;4.706;2023-03-11T16:18:57;8.50;99.90
24146;DHT22;12308;50.948;4.706;2023-03-11T16:21:32;8.30;99.90
24146;DHT22;12308;50.948;4.706;2023-03-11T16:23:58;8.20;99.90
24146;DHT22;12308;50.948;4.706;2023-03-11T16:26:24;8.20;99.90
24146;DHT22;12308;50.948;4.706;2023-03-11T16:28:50;8.20;99.90
24146;DHT22;12308;50.948;4.706;2023-03-11T16:31:16;8.20;99.90
24146;DHT22;12308;50.948;4.706;2023-03-11T16:33:41;8.10;99.90
24146;DHT22;12308;50.948;4.706;2023-03-11T16:36:09;8.00;99.90
24146;DHT22;12308;50.948;4.706;2023-03-11T16:38:46;8.00;99.90
24146;DHT22;12308;50.948;4.706;2023-03-11T16:41:12;8.00;99.90
24146;DHT22;12308;50.948;4.706;2023-03-11T16:43:38;8.00;99.90
24146;DHT22;12308;50.948;4.706;2023-03-11T16:46:04;8.00;99.90
24146;DHT22;12308;50.948;4.706;2023-03-11T16:48:29;7.90;99.90
24146;DHT22;12308;50.948;4.706;2023-03-11T16:50:55;7.80;99.90
24146;DHT22;12308;50.948;4.706;2023-03-11T16:53:21;7.90;99.90
24146;DHT22;12308;50.948;4.706;2023-03-11T16:55:47;7.90;99.90
24146;DHT22;12308;50.948;4.706;2023-03-11T16:58:13;7.90;99.90
24146;DHT22;12308;50.948;4.706;2023-03-11T17:00:40;7.90;99.90
24146;DHT22;12308;50.948;4.706;2023-03-11T17:03:16;7.90;99.90
24146;DHT22;12308;50.948;4.706;2023-03-11T17:05:42;7.90;99.90
24146;DHT22;12308;50.948;4.706;2023-03-11T17:08:08;8.00;99.90
24146;DHT22;12308;50.948;4.706;2023-03-11T17:10:36;8.00;99.90
24146;DHT22;12308;50.948;4.706;2023-03-11T17:13:03;8.00;99.90
24146;DHT22;12308;50.948;4.706;2023-03-11T17:15:29;8.00;99.90
24146;DHT22;12308;50.948;4.706;2023-03-11T17:17:56;8.00;99.90
24146;DHT22;12308;50.948;4.706;2023-03-11T17:20:22;7.90;99.90
24146;DHT22;12308;50.948;4.706;2023-03-11T17:22:48;7.80;99.90
24146;DHT22;12308;50.948;4.706;2023-03-11T17:25:14;7.70;99.90
24146;DHT22;12308;50.948;4.706;2023-03-11T17:27:40;7.60;99.90
24146;DHT22;12308;50.948;4.706;2023-03-11T17:30:06;7.60;99.90
24146;DHT22;12308;50.948;4.706;2023-03-11T17:32:32;7.50;99.90
24146;DHT22;12308;50.948;4.706;2023-03-11T17:34:58;7.50;99.90
24146;DHT22;12308;50.948;4.706;2023-03-11T17:37:24;7.50;99.90
24146;DHT22;12308;50.948;4.706;2023-03-11T17:39:49;7.50;99.90
24146;DHT22;12308;50.948;4.706;2023-03-11T17:42:15;7.50;99.90
24146;DHT22;12308;50.948;4.706;2023-03-11T17:44:41;7.40;99.90
24146;DHT22;12308;50.948;4.706;2023-03-11T17:47:07;7.30;99.90
24146;DHT22;12308;50.948;4.706;2023-03-11T17:49:32;7.20;99.90
24146;DHT22;12308;50.948;4.706;2023-03-11T17:51:58;7.30;99.90
24146;DHT22;12308;50.948;4.706;2023-03-11T17:54:24;7.20;99.90
24146;DHT22;12308;50.948;4.706;2023-03-11T17:56:50;7.10;99.90
24146;DHT22;12308;50.948;4.706;2023-03-11T17:59:16;7.00;99.90
24146;DHT22;12308;50.948;4.706;2023-03-11T18:01:42;7.00;99.90
24146;DHT22;12308;50.948;4.706;2023-03-11T18:04:08;7.00;99.90
24146;DHT22;12308;50.948;4.706;2023-03-11T18:06:34;6.90;99.90
24146;DHT22;12308;50.948;4.706;2023-03-11T18:08:59;7.00;99.90
24146;DHT22;12308;50.948;4.706;2023-03-11T18:11:26;6.90;99.90
24146;DHT22;12308;50.948;4.706;2023-03-11T18:13:52;7.00;99.90